createdAt,value
2019-03-18T00:00:42.497Z,19.88
2019-03-18T00:03:11.108Z,19.87
2019-03-18T00:05:39.605Z,19.87
2019-03-18T00:08:08.467Z,19.86
2019-03-18T00:10:37.244Z,19.86
2019-03-18T00:13:05.757Z,19.87
2019-03-18T00:15:34.263Z,19.87
2019-03-18T00:18:02.787Z,19.86
2019-03-18T00:20:31.543Z,19.87
2019-03-18T00:23:00.069Z,19.87
2019-03-18T00:25:28.590Z,19.87
2019-03-18T00:27:57.115Z,19.88
2019-03-18T00:30:25.941Z,19.88
2019-03-18T00:32:54.472Z,19.87
2019-03-18T00:35:23.316Z,19.87
2019-03-18T00:37:51.908Z,19.89
2019-03-18T00:40:20.742Z,19.88
2019-03-18T00:42:49.383Z,19.88
2019-03-18T00:45:17.924Z,19.89
2019-03-18T00:47:46.697Z,19.88
2019-03-18T00:50:15.204Z,19.88
2019-03-18T00:52:43.716Z,19.89
2019-03-18T00:55:12.254Z,19.87
2019-03-18T00:57:40.783Z,19.88
2019-03-18T01:00:09.525Z,19.86
2019-03-18T01:02:38.016Z,19.85
2019-03-18T01:05:06.641Z,19.86
2019-03-18T01:07:35.477Z,19.86
2019-03-18T01:10:04.550Z,19.85
2019-03-18T01:12:33.705Z,19.84
2019-03-18T01:15:02.243Z,19.85
2019-03-18T01:17:30.756Z,19.84
2019-03-18T01:19:59.270Z,19.83
2019-03-18T01:22:27.831Z,19.83
2019-03-18T01:24:56.983Z,19.84
2019-03-18T01:27:25.635Z,19.83
2019-03-18T01:29:54.516Z,19.83
2019-03-18T01:32:23.005Z,19.84
2019-03-18T01:34:51.541Z,19.84
2019-03-18T01:37:20.027Z,19.83
2019-03-18T01:39:49.014Z,19.84
2019-03-18T01:42:17.544Z,19.84
2019-03-18T01:44:46.067Z,19.83
2019-03-18T01:47:14.870Z,19.83
2019-03-18T01:49:43.360Z,19.83
2019-03-18T01:52:11.889Z,19.83
2019-03-18T01:54:40.450Z,19.84
2019-03-18T01:57:08.986Z,19.84
2019-03-18T01:59:37.596Z,19.84
2019-03-18T02:02:06.138Z,19.85
2019-03-18T02:04:34.942Z,19.83
2019-03-18T02:07:03.467Z,19.83
2019-03-18T02:09:31.999Z,19.84
2019-03-18T02:12:00.487Z,19.83
2019-03-18T02:14:28.988Z,19.83
2019-03-18T02:16:57.540Z,19.84
2019-03-18T02:19:26.072Z,19.83
2019-03-18T02:21:54.586Z,19.83
2019-03-18T02:24:23.072Z,19.83
2019-03-18T02:26:52.091Z,19.83
2019-03-18T02:29:20.881Z,19.83
2019-03-18T02:31:49.409Z,19.82
2019-03-18T02:34:17.895Z,19.83
2019-03-18T02:36:46.416Z,19.83
2019-03-18T02:39:15.190Z,19.82
2019-03-18T02:41:43.691Z,19.82
2019-03-18T02:44:12.194Z,19.82
2019-03-18T02:46:40.878Z,19.82
2019-03-18T02:49:09.474Z,19.81
2019-03-18T02:51:38.061Z,19.81
2019-03-18T02:54:06.579Z,19.81
2019-03-18T02:56:35.077Z,19.80
2019-03-18T02:59:03.618Z,19.79
2019-03-18T03:01:32.147Z,19.81
2019-03-18T03:04:00.662Z,19.81
2019-03-18T03:06:29.178Z,19.79
2019-03-18T03:08:58.015Z,19.79
2019-03-18T03:11:26.554Z,19.79
2019-03-18T03:13:55.374Z,19.78
2019-03-18T03:16:27.218Z,19.79
2019-03-18T03:18:54.123Z,19.79
2019-03-18T03:21:22.631Z,19.79
2019-03-18T03:23:51.149Z,19.79
2019-03-18T03:26:19.669Z,19.79
2019-03-18T03:28:48.190Z,19.79
2019-03-18T03:31:16.711Z,19.79
2019-03-18T03:33:45.242Z,19.78
2019-03-18T03:36:13.809Z,19.79
2019-03-18T03:38:42.292Z,19.79
2019-03-18T03:41:10.854Z,19.79
2019-03-18T03:43:39.394Z,19.79
2019-03-18T03:46:07.894Z,19.79
2019-03-18T03:48:36.520Z,19.79
2019-03-18T03:51:05.023Z,19.78
2019-03-18T03:53:33.869Z,19.79
2019-03-18T03:56:02.379Z,19.78
2019-03-18T03:58:30.922Z,19.77
2019-03-18T04:00:59.442Z,19.78
2019-03-18T04:03:38.404Z,19.78
2019-03-18T04:05:58.505Z,19.79
2019-03-18T04:08:27.092Z,19.78
2019-03-18T04:10:55.548Z,19.77
2019-03-18T04:13:24.082Z,19.77
2019-03-18T04:15:52.837Z,19.77
2019-03-18T04:18:21.358Z,19.77
2019-03-18T04:20:49.883Z,19.77
2019-03-18T04:23:18.434Z,19.75
2019-03-18T04:25:46.978Z,19.76
2019-03-18T04:28:15.587Z,19.75
2019-03-18T04:30:44.097Z,19.75
2019-03-18T04:33:12.897Z,19.75
2019-03-18T04:35:41.789Z,19.74
2019-03-18T04:38:10.282Z,19.76
2019-03-18T04:40:39.068Z,19.75
2019-03-18T04:43:07.585Z,19.75
2019-03-18T04:45:36.467Z,19.75
2019-03-18T04:48:04.996Z,19.74
2019-03-18T04:50:33.641Z,19.74
2019-03-18T04:53:02.169Z,19.74
2019-03-18T04:55:30.707Z,19.74
2019-03-18T04:57:59.207Z,19.73
2019-03-18T05:00:27.806Z,19.74
2019-03-18T05:02:56.552Z,19.74
2019-03-18T05:05:25.053Z,19.74
2019-03-18T05:07:53.551Z,19.74
2019-03-18T05:10:22.093Z,19.73
2019-03-18T05:12:50.620Z,19.74
2019-03-18T05:15:19.161Z,19.73
2019-03-18T05:17:47.705Z,19.74
2019-03-18T05:20:16.245Z,19.73
2019-03-18T05:22:45.094Z,19.73
2019-03-18T05:25:13.612Z,19.73
2019-03-18T05:27:42.148Z,19.72
2019-03-18T05:30:10.847Z,19.73
2019-03-18T05:32:39.345Z,19.72
2019-03-18T05:35:07.951Z,19.71
2019-03-18T05:37:36.522Z,19.72
2019-03-18T05:40:05.106Z,19.71
2019-03-18T05:42:33.621Z,19.71
2019-03-18T05:45:02.443Z,19.71
2019-03-18T05:47:39.057Z,19.71
2019-03-18T05:50:01.471Z,19.71
2019-03-18T05:52:30.320Z,19.33
2019-03-18T05:54:58.863Z,19.69
2019-03-18T05:57:27.354Z,19.69
2019-03-18T05:59:55.902Z,19.70
2019-03-18T06:02:24.754Z,19.69
2019-03-18T06:04:53.293Z,18.19
2019-03-18T06:07:21.801Z,15.78
2019-03-18T06:09:50.334Z,14.01
2019-03-18T06:12:18.817Z,13.07
2019-03-18T06:14:47.376Z,13.70
2019-03-18T06:17:16.179Z,14.67
2019-03-18T06:19:44.698Z,15.52
2019-03-18T06:22:13.262Z,16.23
2019-03-18T06:24:41.807Z,16.81
2019-03-18T06:27:10.590Z,17.24
2019-03-18T06:29:39.126Z,17.59
2019-03-18T06:32:08.009Z,17.86
2019-03-18T06:34:36.547Z,18.10
2019-03-18T06:37:05.070Z,18.30
2019-03-18T06:39:33.936Z,18.46
2019-03-18T06:42:02.729Z,18.60
2019-03-18T06:44:31.514Z,18.72
2019-03-18T06:47:00.060Z,18.83
2019-03-18T06:49:28.906Z,18.91
2019-03-18T06:51:57.425Z,18.99
2019-03-18T06:54:25.952Z,19.08
2019-03-18T06:56:54.469Z,19.14
2019-03-18T06:59:23.023Z,19.19
2019-03-18T07:01:51.503Z,19.25
2019-03-18T07:04:20.170Z,19.28
2019-03-18T07:06:48.923Z,19.33
2019-03-18T07:09:17.442Z,19.37
2019-03-18T07:11:46.259Z,19.40
2019-03-18T07:14:14.771Z,19.42
2019-03-18T07:16:43.267Z,19.44
2019-03-18T07:19:11.791Z,19.46
2019-03-18T07:21:40.406Z,19.48
2019-03-18T07:24:09.352Z,19.49
2019-03-18T07:26:37.855Z,19.52
2019-03-18T07:29:06.379Z,19.53
2019-03-18T07:31:34.891Z,19.55
2019-03-18T07:34:03.656Z,19.56
2019-03-18T07:36:32.424Z,19.55
2019-03-18T07:39:01.367Z,19.56
2019-03-18T07:41:29.899Z,19.57
2019-03-18T07:43:58.428Z,19.57
2019-03-18T07:46:26.980Z,19.57
2019-03-18T07:48:55.499Z,19.58
2019-03-18T07:51:25.342Z,19.58
2019-03-18T07:53:53.871Z,19.59
2019-03-18T07:56:22.368Z,19.59
2019-03-18T07:58:50.879Z,19.59
2019-03-18T08:01:19.530Z,19.60
2019-03-18T08:03:48.291Z,19.60
2019-03-18T08:06:16.817Z,19.60
2019-03-18T08:08:45.402Z,19.62
2019-03-18T08:11:14.188Z,19.62
2019-03-18T08:13:42.766Z,19.63
2019-03-18T08:16:11.386Z,19.65
2019-03-18T08:18:43.436Z,19.65
2019-03-18T08:21:10.126Z,19.66
2019-03-18T08:23:38.643Z,19.66
2019-03-18T08:26:07.170Z,19.65
2019-03-18T08:28:35.692Z,19.65
2019-03-18T08:31:04.217Z,19.65
2019-03-18T08:33:32.737Z,19.65
2019-03-18T08:36:01.531Z,19.64
2019-03-18T08:38:30.059Z,19.64
2019-03-18T08:40:58.582Z,19.64
2019-03-18T08:43:27.098Z,19.65
2019-03-18T08:45:55.610Z,19.65
2019-03-18T08:48:24.183Z,19.65
2019-03-18T08:50:52.729Z,19.67
2019-03-18T08:53:21.274Z,19.68
2019-03-18T08:55:49.771Z,19.67
2019-03-18T08:58:18.287Z,19.68
2019-03-18T09:00:46.829Z,19.68
2019-03-18T09:03:15.341Z,19.69
2019-03-18T09:05:44.175Z,19.69
2019-03-18T09:08:12.682Z,19.70
2019-03-18T09:10:41.183Z,19.70
2019-03-18T09:13:10.274Z,19.71
2019-03-18T09:15:38.805Z,19.71
2019-03-18T09:18:07.322Z,19.73
2019-03-18T09:20:35.883Z,19.74
2019-03-18T09:23:04.736Z,19.72
2019-03-18T09:25:33.572Z,19.72
2019-03-18T09:28:02.094Z,19.69
2019-03-18T09:30:31.195Z,19.67
2019-03-18T09:32:59.701Z,19.68
2019-03-18T09:35:28.251Z,19.67
2019-03-18T09:37:56.782Z,19.66
2019-03-18T09:40:25.295Z,19.67
2019-03-18T09:42:54.148Z,19.67
2019-03-18T09:45:22.990Z,19.67
2019-03-18T09:47:51.481Z,19.68
2019-03-18T09:50:20.269Z,19.68
2019-03-18T09:52:48.823Z,19.68
2019-03-18T09:55:17.574Z,19.69
2019-03-18T09:57:46.099Z,19.70
2019-03-18T10:00:14.615Z,19.69
2019-03-18T10:02:43.154Z,19.71
2019-03-18T10:05:11.686Z,19.71
2019-03-18T10:07:40.198Z,19.74
2019-03-18T10:10:08.789Z,19.75
2019-03-18T10:12:37.343Z,19.76
2019-03-18T10:15:06.774Z,19.77
2019-03-18T10:17:35.302Z,19.78
2019-03-18T10:20:04.238Z,19.79
2019-03-18T10:22:35.899Z,19.79
2019-03-18T10:25:04.469Z,19.78
2019-03-18T10:27:33.053Z,19.77
2019-03-18T10:30:01.625Z,19.77
2019-03-18T10:32:30.132Z,19.77
2019-03-18T10:34:58.647Z,19.76
2019-03-18T10:37:27.447Z,19.77
2019-03-18T10:39:55.957Z,19.76
2019-03-18T10:42:24.463Z,19.77
2019-03-18T10:44:52.989Z,19.78
2019-03-18T10:47:21.532Z,19.80
2019-03-18T10:49:50.338Z,19.81
2019-03-18T10:52:18.978Z,19.80
2019-03-18T10:54:47.463Z,19.78
2019-03-18T10:57:16.060Z,19.76
2019-03-18T10:59:44.523Z,19.76
2019-03-18T11:02:13.042Z,19.73
2019-03-18T11:04:41.586Z,19.73
2019-03-18T11:07:10.196Z,19.71
2019-03-18T11:09:38.692Z,19.69
2019-03-18T11:12:07.227Z,19.69
2019-03-18T11:14:36.052Z,19.71
2019-03-18T11:17:04.560Z,19.73
2019-03-18T11:19:33.089Z,19.72
2019-03-18T11:22:01.630Z,19.57
2019-03-18T11:24:30.538Z,19.73
2019-03-18T11:26:59.062Z,19.73
2019-03-18T11:29:27.567Z,19.76
2019-03-18T11:31:56.100Z,19.79
2019-03-18T11:34:24.645Z,19.79
2019-03-18T11:36:53.144Z,19.79
2019-03-18T11:39:21.635Z,19.77
2019-03-18T11:41:50.173Z,19.76
2019-03-18T11:44:18.979Z,19.75
2019-03-18T11:46:47.500Z,19.75
2019-03-18T11:49:16.025Z,19.74
2019-03-18T11:51:44.540Z,19.73
2019-03-18T11:54:13.106Z,19.73
2019-03-18T11:56:41.625Z,19.73
2019-03-18T11:59:10.175Z,19.75
2019-03-18T12:01:38.682Z,19.82
2019-03-18T12:04:07.262Z,19.89
2019-03-18T12:06:35.875Z,19.92
2019-03-18T12:09:05.368Z,20.00
2019-03-18T12:11:33.946Z,20.06
2019-03-18T12:14:02.478Z,20.07
2019-03-18T12:16:31.251Z,20.09
2019-03-18T12:18:59.801Z,20.12
2019-03-18T12:21:28.342Z,20.19
2019-03-18T12:23:57.155Z,20.27
2019-03-18T12:26:25.708Z,20.35
2019-03-18T12:28:54.319Z,20.42
2019-03-18T12:31:22.822Z,20.48
2019-03-18T12:33:51.311Z,20.48
2019-03-18T12:36:19.887Z,20.50
2019-03-18T12:38:48.426Z,20.52
2019-03-18T12:41:16.947Z,20.50
2019-03-18T12:43:45.465Z,20.41
2019-03-18T12:46:13.999Z,20.33
2019-03-18T12:48:43.081Z,20.33
2019-03-18T12:51:11.596Z,20.40
2019-03-18T12:53:40.142Z,20.50
2019-03-18T12:56:08.651Z,20.61
2019-03-18T12:58:37.175Z,20.59
2019-03-18T13:01:12.550Z,20.55
2019-03-18T13:03:36.323Z,20.50
2019-03-18T13:06:04.831Z,20.53
2019-03-18T13:08:33.990Z,20.55
2019-03-18T13:11:02.485Z,20.61
2019-03-18T13:13:30.996Z,20.61
2019-03-18T13:15:59.521Z,20.62
2019-03-18T13:18:28.045Z,20.64
2019-03-18T13:21:07.378Z,20.63
2019-03-18T13:23:27.119Z,20.59
2019-03-18T13:25:55.636Z,20.61
2019-03-18T13:28:24.170Z,20.69
2019-03-18T13:30:52.701Z,20.77
2019-03-18T13:33:21.556Z,20.87
2019-03-18T13:35:50.068Z,20.92
2019-03-18T13:38:18.564Z,20.94
2019-03-18T13:40:47.058Z,20.89
2019-03-18T13:43:15.578Z,20.81
2019-03-18T13:45:54.858Z,20.71
2019-03-18T13:48:14.383Z,20.65
2019-03-18T13:50:42.911Z,20.62
2019-03-18T13:53:11.757Z,20.66
2019-03-18T13:55:40.295Z,20.73
2019-03-18T13:58:08.795Z,20.75
2019-03-18T14:00:37.320Z,20.72
2019-03-18T14:03:05.958Z,20.68
2019-03-18T14:05:34.463Z,20.62
2019-03-18T14:08:03.279Z,20.56
2019-03-18T14:10:31.875Z,20.52
2019-03-18T14:13:00.392Z,20.50
2019-03-18T14:15:28.918Z,20.47
2019-03-18T14:17:57.441Z,20.43
2019-03-18T14:20:25.974Z,20.37
2019-03-18T14:22:54.502Z,20.33
2019-03-18T14:25:23.360Z,20.42
2019-03-18T14:27:51.864Z,20.49
2019-03-18T14:30:20.464Z,20.46
2019-03-18T14:32:49.320Z,20.40
2019-03-18T14:35:21.629Z,20.35
2019-03-18T14:37:48.088Z,20.40
2019-03-18T14:40:16.774Z,20.42
2019-03-18T14:42:45.314Z,20.37
2019-03-18T14:45:15.775Z,20.30
2019-03-18T14:47:44.298Z,20.29
2019-03-18T14:50:12.865Z,20.28
2019-03-18T14:52:41.668Z,20.31
2019-03-18T14:55:10.445Z,20.35
2019-03-18T14:57:39.263Z,20.30
2019-03-18T15:00:14.725Z,20.13
2019-03-18T15:02:43.364Z,19.96
2019-03-18T15:05:12.102Z,19.76
2019-03-18T15:07:40.600Z,19.59
2019-03-18T15:10:09.611Z,19.49
2019-03-18T15:12:38.134Z,19.46
2019-03-18T15:15:07.288Z,19.55
2019-03-18T15:17:35.801Z,19.64
2019-03-18T15:20:04.827Z,19.71
2019-03-18T15:22:33.671Z,19.78
2019-03-18T15:25:02.216Z,19.83
2019-03-18T15:27:30.791Z,19.86
2019-03-18T15:29:59.342Z,19.90
2019-03-18T15:32:27.870Z,19.92
2019-03-18T15:34:56.358Z,19.94
2019-03-18T15:37:24.899Z,19.96
2019-03-18T15:39:53.417Z,19.97
2019-03-18T15:42:21.945Z,19.99
2019-03-18T15:44:50.507Z,20.00
2019-03-18T15:47:19.028Z,20.03
2019-03-18T15:49:47.559Z,20.06
2019-03-18T15:52:16.386Z,20.13
2019-03-18T15:54:53.739Z,20.19
2019-03-18T15:57:15.524Z,20.22
2019-03-18T15:59:44.130Z,20.25
2019-03-18T16:02:12.866Z,20.23
2019-03-18T16:04:41.377Z,20.19
2019-03-18T16:07:09.894Z,20.16
2019-03-18T16:09:38.829Z,20.13
2019-03-18T16:12:07.332Z,20.09
2019-03-18T16:14:36.075Z,20.07
2019-03-18T16:17:04.605Z,20.05
2019-03-18T16:19:33.136Z,20.02
2019-03-18T16:22:01.667Z,20.01
2019-03-18T16:24:30.203Z,20.00
2019-03-18T16:26:58.738Z,19.99
2019-03-18T16:29:27.253Z,19.98
2019-03-18T16:31:55.762Z,19.98
2019-03-18T16:34:24.267Z,19.97
2019-03-18T16:36:52.807Z,19.95
2019-03-18T16:39:21.346Z,19.94
2019-03-18T16:41:49.920Z,19.93
2019-03-18T16:44:18.486Z,19.92
2019-03-18T16:46:47.050Z,19.92
2019-03-18T16:49:15.588Z,19.90
2019-03-18T16:51:44.241Z,19.89
2019-03-18T16:54:12.783Z,19.89
2019-03-18T16:56:41.319Z,19.87
2019-03-18T16:59:09.864Z,19.86
2019-03-18T17:01:38.358Z,19.86
2019-03-18T17:04:06.923Z,19.86
2019-03-18T17:06:37.851Z,19.85
2019-03-18T17:09:07.255Z,19.85
2019-03-18T17:11:36.005Z,19.85
2019-03-18T17:14:04.957Z,19.84
2019-03-18T17:16:33.489Z,19.84
2019-03-18T17:19:02.366Z,19.84
2019-03-18T17:21:30.916Z,19.83
2019-03-18T17:23:59.440Z,19.83
2019-03-18T17:26:27.959Z,19.83
2019-03-18T17:28:56.474Z,19.83
2019-03-18T17:31:25.044Z,19.81
2019-03-18T17:33:53.853Z,19.80
2019-03-18T17:36:22.373Z,19.80
2019-03-18T17:38:50.877Z,19.78
2019-03-18T17:41:19.623Z,19.79
2019-03-18T17:43:48.161Z,19.78
2019-03-18T17:46:17.032Z,19.78
2019-03-18T17:48:45.570Z,19.77
2019-03-18T17:51:14.118Z,19.76
2019-03-18T17:53:42.935Z,19.76
2019-03-18T17:56:11.479Z,19.76
2019-03-18T17:58:40.015Z,19.74
2019-03-18T18:01:08.853Z,19.74
2019-03-18T18:03:37.382Z,19.73
2019-03-18T18:06:05.961Z,19.74
2019-03-18T18:08:34.496Z,19.74
2019-03-18T18:11:02.977Z,19.73
2019-03-18T18:13:31.537Z,19.74
2019-03-18T18:16:00.168Z,19.73
2019-03-18T18:18:29.018Z,19.74
2019-03-18T18:20:57.525Z,19.72
2019-03-18T18:23:26.102Z,19.72
2019-03-18T18:25:54.624Z,19.72
2019-03-18T18:28:23.154Z,19.72
2019-03-18T18:30:51.762Z,19.72
2019-03-18T18:33:20.303Z,19.71
2019-03-18T18:35:48.782Z,19.71
2019-03-18T18:38:17.310Z,19.72
2019-03-18T18:40:45.846Z,19.71
2019-03-18T18:43:14.363Z,19.71
2019-03-18T18:45:42.877Z,19.71
2019-03-18T18:48:11.429Z,19.70
2019-03-18T18:50:40.038Z,19.70
2019-03-18T18:53:08.561Z,19.70
2019-03-18T18:55:37.059Z,19.71
2019-03-18T18:58:05.585Z,19.71
2019-03-18T19:00:34.110Z,19.70
2019-03-18T19:03:02.620Z,19.71
2019-03-18T19:05:31.156Z,19.71
2019-03-18T19:07:59.675Z,19.71
2019-03-18T19:10:28.183Z,19.71
2019-03-18T19:12:56.737Z,19.71
2019-03-18T19:15:25.565Z,19.70
2019-03-18T19:17:54.079Z,19.69
2019-03-18T19:20:22.600Z,19.71
2019-03-18T19:22:51.512Z,19.70
2019-03-18T19:25:20.067Z,19.71
2019-03-18T19:27:48.670Z,19.69
2019-03-18T19:30:18.033Z,19.69
2019-03-18T19:32:46.550Z,19.69
2019-03-18T19:35:15.092Z,19.68
2019-03-18T19:37:43.910Z,19.69
2019-03-18T19:40:13.065Z,19.56
2019-03-18T19:42:41.797Z,19.69
2019-03-18T19:45:11.352Z,19.73
2019-03-18T19:47:39.861Z,19.03
2019-03-18T19:50:10.772Z,18.05
2019-03-18T19:52:40.163Z,17.30
2019-03-18T19:55:08.976Z,16.82
2019-03-18T19:57:37.493Z,16.15
2019-03-18T20:00:07.522Z,15.79
2019-03-18T20:02:36.122Z,15.70
2019-03-18T20:05:14.625Z,15.83
2019-03-18T20:07:35.182Z,16.24
2019-03-18T20:10:03.740Z,16.74
2019-03-18T20:12:32.247Z,17.20
2019-03-18T20:15:00.768Z,17.60
2019-03-18T20:17:29.288Z,17.90
2019-03-18T20:19:57.808Z,18.15
2019-03-18T20:22:26.555Z,18.36
2019-03-18T20:24:55.091Z,18.52
2019-03-18T20:27:23.861Z,18.65
2019-03-18T20:29:52.460Z,18.77
2019-03-18T20:32:20.966Z,18.88
2019-03-18T20:34:49.811Z,18.97
2019-03-18T20:37:18.337Z,19.05
2019-03-18T20:39:47.183Z,19.13
2019-03-18T20:42:15.707Z,19.18
2019-03-18T20:44:44.291Z,19.25
2019-03-18T20:47:12.814Z,19.28
2019-03-18T20:49:41.623Z,19.32
2019-03-18T20:52:16.823Z,19.36
2019-03-18T20:54:41.629Z,19.39
2019-03-18T20:57:10.323Z,19.42
2019-03-18T20:59:38.858Z,19.45
2019-03-18T21:02:07.359Z,19.48
2019-03-18T21:04:35.904Z,19.50
2019-03-18T21:07:04.749Z,19.52
2019-03-18T21:09:33.577Z,19.54
2019-03-18T21:12:02.093Z,19.55
2019-03-18T21:14:30.747Z,19.56
2019-03-18T21:16:59.550Z,19.57
2019-03-18T21:19:28.081Z,19.58
2019-03-18T21:21:56.924Z,19.58
2019-03-18T21:24:25.431Z,19.59
2019-03-18T21:26:53.971Z,19.59
2019-03-18T21:29:22.483Z,19.58
2019-03-18T21:31:51.051Z,19.59
2019-03-18T21:34:19.585Z,19.58
2019-03-18T21:36:48.373Z,19.58
2019-03-18T21:39:18.061Z,19.57
2019-03-18T21:41:46.688Z,19.58
2019-03-18T21:44:15.209Z,19.59
2019-03-18T21:46:43.745Z,19.58
2019-03-18T21:49:12.270Z,19.59
2019-03-18T21:51:40.783Z,19.60
2019-03-18T21:54:09.399Z,19.60
2019-03-18T21:56:38.065Z,19.61
2019-03-18T21:59:06.607Z,19.62
2019-03-18T22:01:35.132Z,19.63
2019-03-18T22:04:03.666Z,19.63
2019-03-18T22:06:32.224Z,19.64
2019-03-18T22:09:00.731Z,19.64
2019-03-18T22:11:29.247Z,19.65
2019-03-18T22:13:57.791Z,19.65
2019-03-18T22:16:26.335Z,19.66
2019-03-18T22:18:54.871Z,19.65
2019-03-18T22:21:23.413Z,19.66
2019-03-18T22:23:51.930Z,19.67
2019-03-18T22:26:20.458Z,19.67
2019-03-18T22:28:48.976Z,19.66
2019-03-18T22:31:17.469Z,19.66
2019-03-18T22:33:46.046Z,19.66
2019-03-18T22:36:14.911Z,19.65
2019-03-18T22:38:43.421Z,19.65
2019-03-18T22:41:11.929Z,19.65
2019-03-18T22:43:40.435Z,19.65
2019-03-18T22:46:09.014Z,19.65
2019-03-18T22:48:37.483Z,19.63
2019-03-18T22:51:06.307Z,19.64
2019-03-18T22:53:34.826Z,19.64
2019-03-18T22:56:03.348Z,19.63
2019-03-18T22:58:31.860Z,19.63
2019-03-18T23:01:11.255Z,19.63
2019-03-18T23:03:39.779Z,19.63
2019-03-18T23:06:08.326Z,19.63
2019-03-18T23:08:36.831Z,19.62
2019-03-18T23:11:05.350Z,19.63
2019-03-18T23:13:33.912Z,19.63
2019-03-18T23:16:02.509Z,19.63
2019-03-18T23:18:31.021Z,19.64
2019-03-18T23:20:59.533Z,19.65
2019-03-18T23:23:28.053Z,19.65
2019-03-18T23:25:56.567Z,19.65
2019-03-18T23:28:25.095Z,19.65
2019-03-18T23:30:53.623Z,19.64
2019-03-18T23:33:22.156Z,19.66
2019-03-18T23:35:50.724Z,19.65
2019-03-18T23:38:19.275Z,19.67
2019-03-18T23:40:47.807Z,19.65
2019-03-18T23:43:16.316Z,19.66
2019-03-18T23:45:45.155Z,19.65
2019-03-18T23:48:13.662Z,19.65
2019-03-18T23:50:42.188Z,19.66
2019-03-18T23:53:10.697Z,19.65
2019-03-18T23:55:39.207Z,19.65
2019-03-18T23:58:07.759Z,19.65
